sensor_id;sensor_type;location;lat;lon;timestamp;P1;durP1;ratioP1;P2;durP2;ratioP2
53835;SDS011;39737;43.334;21.936;2022-12-11T00:00:14;38.85;;;18.80;;
53835;SDS011;39737;43.334;21.936;2022-12-11T00:03:00;36.33;;;15.02;;
53835;SDS011;39737;43.334;21.936;2022-12-11T00:05:47;36.47;;;16.35;;
53835;SDS011;39737;43.334;21.936;2022-12-11T00:08:33;53.55;;;19.58;;
53835;SDS011;39737;43.334;21.936;2022-12-11T00:11:20;37.35;;;19.02;;
53835;SDS011;39737;43.334;21.936;2022-12-11T00:14:06;26.17;;;11.57;;
53835;SDS011;39737;43.334;21.936;2022-12-11T00:16:52;18.65;;;9.23;;
53835;SDS011;39737;43.334;21.936;2022-12-11T00:19:38;18.38;;;7.45;;
53835;SDS011;39737;43.334;21.936;2022-12-11T00:22:24;14.20;;;6.57;;
53835;SDS011;39737;43.334;21.936;2022-12-11T00:25:11;10.35;;;5.38;;
53835;SDS011;39737;43.334;21.936;2022-12-11T00:27:57;8.93;;;5.40;;
53835;SDS011;39737;43.334;21.936;2022-12-11T00:30:43;23.00;;;8.98;;
53835;SDS011;39737;43.334;21.936;2022-12-11T00:33:29;19.88;;;8.77;;
53835;SDS011;39737;43.334;21.936;2022-12-11T00:36:17;13.77;;;5.95;;
53835;SDS011;39737;43.334;21.936;2022-12-11T00:39:03;12.18;;;6.30;;
53835;SDS011;39737;43.334;21.936;2022-12-11T00:41:50;7.75;;;4.30;;
53835;SDS011;39737;43.334;21.936;2022-12-11T00:44:36;5.22;;;3.13;;
53835;SDS011;39737;43.334;21.936;2022-12-11T00:47:22;6.47;;;3.42;;
53835;SDS011;39737;43.334;21.936;2022-12-11T00:50:08;7.60;;;4.07;;
53835;SDS011;39737;43.334;21.936;2022-12-11T00:52:54;10.68;;;4.30;;
53835;SDS011;39737;43.334;21.936;2022-12-11T00:55:41;6.40;;;1.88;;
53835;SDS011;39737;43.334;21.936;2022-12-11T00:58:27;5.15;;;2.38;;
53835;SDS011;39737;43.334;21.936;2022-12-11T01:01:14;5.18;;;1.80;;
53835;SDS011;39737;43.334;21.936;2022-12-11T01:04:01;5.60;;;1.60;;
53835;SDS011;39737;43.334;21.936;2022-12-11T01:06:48;4.97;;;1.70;;
53835;SDS011;39737;43.334;21.936;2022-12-11T01:09:53;1.80;;;1.27;;
53835;SDS011;39737;43.334;21.936;2022-12-11T01:13:01;1.95;;;1.08;;
53835;SDS011;39737;43.334;21.936;2022-12-11T01:15:47;4.45;;;2.00;;
53835;SDS011;39737;43.334;21.936;2022-12-11T01:18:33;1.63;;;0.88;;
53835;SDS011;39737;43.334;21.936;2022-12-11T01:21:19;1.30;;;1.08;;
53835;SDS011;39737;43.334;21.936;2022-12-11T01:24:06;3.85;;;1.30;;
53835;SDS011;39737;43.334;21.936;2022-12-11T01:26:52;4.40;;;1.67;;
53835;SDS011;39737;43.334;21.936;2022-12-11T01:29:38;4.53;;;1.40;;
53835;SDS011;39737;43.334;21.936;2022-12-11T01:32:25;3.63;;;1.58;;
53835;SDS011;39737;43.334;21.936;2022-12-11T01:35:12;1.40;;;1.20;;
53835;SDS011;39737;43.334;21.936;2022-12-11T01:37:58;3.92;;;1.65;;
53835;SDS011;39737;43.334;21.936;2022-12-11T01:40:48;1.90;;;1.00;;
53835;SDS011;39737;43.334;21.936;2022-12-11T01:43:57;1.48;;;1.00;;
53835;SDS011;39737;43.334;21.936;2022-12-11T01:46:44;1.73;;;0.98;;
53835;SDS011;39737;43.334;21.936;2022-12-11T01:49:30;1.85;;;1.35;;
53835;SDS011;39737;43.334;21.936;2022-12-11T01:52:19;2.28;;;1.00;;
53835;SDS011;39737;43.334;21.936;2022-12-11T01:55:06;3.33;;;1.42;;
53835;SDS011;39737;43.334;21.936;2022-12-11T01:57:54;2.58;;;1.35;;
53835;SDS011;39737;43.334;21.936;2022-12-11T02:00:41;2.92;;;1.10;;
53835;SDS011;39737;43.334;21.936;2022-12-11T02:03:27;2.70;;;1.38;;
53835;SDS011;39737;43.334;21.936;2022-12-11T02:06:30;2.15;;;1.02;;
53835;SDS011;39737;43.334;21.936;2022-12-11T02:09:35;16.35;;;1.00;;
53835;SDS011;39737;43.334;21.936;2022-12-11T02:12:28;2.10;;;0.90;;
53835;SDS011;39737;43.334;21.936;2022-12-11T02:30:10;1.50;;;1.13;;
53835;SDS011;39737;43.334;21.936;2022-12-11T02:32:57;1.88;;;0.90;;
53835;SDS011;39737;43.334;21.936;2022-12-11T02:35:43;1.48;;;0.93;;
53835;SDS011;39737;43.334;21.936;2022-12-11T02:38:31;1.27;;;0.55;;
53835;SDS011;39737;43.334;21.936;2022-12-11T02:41:19;0.40;;;0.40;;
53835;SDS011;39737;43.334;21.936;2022-12-11T02:44:06;0.80;;;0.80;;
53835;SDS011;39737;43.334;21.936;2022-12-11T02:46:52;1.75;;;0.77;;
53835;SDS011;39737;43.334;21.936;2022-12-11T02:49:40;3.95;;;1.42;;
53835;SDS011;39737;43.334;21.936;2022-12-11T02:52:27;1.75;;;0.90;;
53835;SDS011;39737;43.334;21.936;2022-12-11T02:55:14;1.67;;;0.85;;
53835;SDS011;39737;43.334;21.936;2022-12-11T02:58:06;0.50;;;0.50;;
53835;SDS011;39737;43.334;21.936;2022-12-11T03:00:54;1.45;;;0.95;;
53835;SDS011;39737;43.334;21.936;2022-12-11T03:03:41;1.88;;;1.20;;
53835;SDS011;39737;43.334;21.936;2022-12-11T03:06:30;2.97;;;1.13;;
53835;SDS011;39737;43.334;21.936;2022-12-11T03:09:16;2.95;;;1.50;;
53835;SDS011;39737;43.334;21.936;2022-12-11T03:12:03;4.43;;;2.88;;
53835;SDS011;39737;43.334;21.936;2022-12-11T03:14:49;6.25;;;2.10;;
53835;SDS011;39737;43.334;21.936;2022-12-11T03:20:33;3.05;;;2.25;;
53835;SDS011;39737;43.334;21.936;2022-12-11T03:24:06;5.38;;;1.95;;
53835;SDS011;39737;43.334;21.936;2022-12-11T03:26:31;2.88;;;1.45;;
53835;SDS011;39737;43.334;21.936;2022-12-11T03:29:20;4.97;;;2.03;;
53835;SDS011;39737;43.334;21.936;2022-12-11T03:32:09;2.40;;;1.83;;
53835;SDS011;39737;43.334;21.936;2022-12-11T03:35:44;7.15;;;3.83;;
53835;SDS011;39737;43.334;21.936;2022-12-11T03:38:05;4.70;;;2.75;;
53835;SDS011;39737;43.334;21.936;2022-12-11T03:40:52;7.28;;;3.40;;
53835;SDS011;39737;43.334;21.936;2022-12-11T03:43:39;3.05;;;2.15;;
53835;SDS011;39737;43.334;21.936;2022-12-11T03:46:27;4.03;;;2.17;;
53835;SDS011;39737;43.334;21.936;2022-12-11T03:49:22;4.53;;;1.20;;
53835;SDS011;39737;43.334;21.936;2022-12-11T03:52:09;3.53;;;1.23;;
53835;SDS011;39737;43.334;21.936;2022-12-11T03:54:58;3.95;;;2.50;;
53835;SDS011;39737;43.334;21.936;2022-12-11T03:57:46;2.20;;;1.70;;
53835;SDS011;39737;43.334;21.936;2022-12-11T04:00:33;4.72;;;2.97;;
53835;SDS011;39737;43.334;21.936;2022-12-11T04:03:19;4.38;;;2.03;;
53835;SDS011;39737;43.334;21.936;2022-12-11T04:06:05;10.63;;;5.15;;
53835;SDS011;39737;43.334;21.936;2022-12-11T04:08:52;6.43;;;3.92;;
53835;SDS011;39737;43.334;21.936;2022-12-11T04:11:38;10.70;;;7.38;;
53835;SDS011;39737;43.334;21.936;2022-12-11T04:14:24;4.78;;;2.03;;
53835;SDS011;39737;43.334;21.936;2022-12-11T04:17:32;6.57;;;3.78;;
53835;SDS011;39737;43.334;21.936;2022-12-11T04:20:37;3.05;;;1.50;;
53835;SDS011;39737;43.334;21.936;2022-12-11T04:23:42;7.25;;;1.85;;
53835;SDS011;39737;43.334;21.936;2022-12-11T04:26:46;3.90;;;1.90;;
53835;SDS011;39737;43.334;21.936;2022-12-11T04:29:51;1.55;;;1.10;;
53835;SDS011;39737;43.334;21.936;2022-12-11T04:32:37;1.95;;;1.33;;
53835;SDS011;39737;43.334;21.936;2022-12-11T04:35:23;3.88;;;1.20;;
53835;SDS011;39737;43.334;21.936;2022-12-11T04:38:09;3.22;;;1.88;;
53835;SDS011;39737;43.334;21.936;2022-12-11T04:41:06;0.50;;;0.50;;
53835;SDS011;39737;43.334;21.936;2022-12-11T04:43:52;3.00;;;1.30;;
53835;SDS011;39737;43.334;21.936;2022-12-11T04:46:40;1.63;;;1.48;;
53835;SDS011;39737;43.334;21.936;2022-12-11T04:49:45;2.72;;;1.75;;
53835;SDS011;39737;43.334;21.936;2022-12-11T04:52:31;1.10;;;1.00;;
53835;SDS011;39737;43.334;21.936;2022-12-11T04:55:17;1.15;;;1.08;;
53835;SDS011;39737;43.334;21.936;2022-12-11T04:58:03;1.35;;;1.25;;
53835;SDS011;39737;43.334;21.936;2022-12-11T05:01:09;0.50;;;0.50;;
53835;SDS011;39737;43.334;21.936;2022-12-11T05:03:55;0.50;;;0.50;;
53835;SDS011;39737;43.334;21.936;2022-12-11T05:06:43;0.50;;;0.50;;
53835;SDS011;39737;43.334;21.936;2022-12-11T05:09:29;1.85;;;1.60;;
53835;SDS011;39737;43.334;21.936;2022-12-11T05:12:15;0.60;;;0.60;;
53835;SDS011;39737;43.334;21.936;2022-12-11T05:15:02;5.10;;;1.77;;
53835;SDS011;39737;43.334;21.936;2022-12-11T05:17:49;0.63;;;0.63;;
53835;SDS011;39737;43.334;21.936;2022-12-11T05:20:35;0.77;;;0.77;;
53835;SDS011;39737;43.334;21.936;2022-12-11T05:23:21;0.60;;;0.60;;
53835;SDS011;39737;43.334;21.936;2022-12-11T05:26:11;0.63;;;0.63;;
53835;SDS011;39737;43.334;21.936;2022-12-11T05:28:58;0.63;;;0.63;;
53835;SDS011;39737;43.334;21.936;2022-12-11T05:31:44;0.60;;;0.60;;
53835;SDS011;39737;43.334;21.936;2022-12-11T05:34:30;1.95;;;1.23;;
53835;SDS011;39737;43.334;21.936;2022-12-11T05:37:16;0.50;;;0.50;;
53835;SDS011;39737;43.334;21.936;2022-12-11T05:40:05;0.50;;;0.50;;
53835;SDS011;39737;43.334;21.936;2022-12-11T05:43:10;0.50;;;0.50;;
53835;SDS011;39737;43.334;21.936;2022-12-11T05:46:03;0.60;;;0.60;;
53835;SDS011;39737;43.334;21.936;2022-12-11T05:48:50;0.70;;;0.70;;
53835;SDS011;39737;43.334;21.936;2022-12-11T05:51:36;1.08;;;1.08;;
53835;SDS011;39737;43.334;21.936;2022-12-11T05:54:24;0.70;;;0.70;;
53835;SDS011;39737;43.334;21.936;2022-12-11T05:57:10;0.85;;;0.85;;
53835;SDS011;39737;43.334;21.936;2022-12-11T06:00:15;0.70;;;0.70;;
53835;SDS011;39737;43.334;21.936;2022-12-11T06:03:19;0.95;;;0.93;;
53835;SDS011;39737;43.334;21.936;2022-12-11T06:06:06;0.50;;;0.50;;
53835;SDS011;39737;43.334;21.936;2022-12-11T06:08:53;0.73;;;0.73;;
53835;SDS011;39737;43.334;21.936;2022-12-11T06:11:39;0.85;;;0.85;;
53835;SDS011;39737;43.334;21.936;2022-12-11T06:14:25;0.80;;;0.80;;
53835;SDS011;39737;43.334;21.936;2022-12-11T06:17:12;0.80;;;0.80;;
53835;SDS011;39737;43.334;21.936;2022-12-11T06:19:58;1.00;;;0.90;;
53835;SDS011;39737;43.334;21.936;2022-12-11T06:22:44;0.63;;;0.63;;
53835;SDS011;39737;43.334;21.936;2022-12-11T06:25:30;1.75;;;1.40;;
53835;SDS011;39737;43.334;21.936;2022-12-11T06:28:16;0.60;;;0.60;;
53835;SDS011;39737;43.334;21.936;2022-12-11T06:31:03;0.60;;;0.60;;
53835;SDS011;39737;43.334;21.936;2022-12-11T06:33:49;2.30;;;1.73;;
53835;SDS011;39737;43.334;21.936;2022-12-11T06:36:35;0.70;;;0.70;;
53835;SDS011;39737;43.334;21.936;2022-12-11T06:39:21;0.68;;;0.68;;
53835;SDS011;39737;43.334;21.936;2022-12-11T06:42:08;0.77;;;0.77;;
53835;SDS011;39737;43.334;21.936;2022-12-11T06:44:54;0.60;;;0.60;;
53835;SDS011;39737;43.334;21.936;2022-12-11T06:47:42;0.60;;;0.60;;
53835;SDS011;39737;43.334;21.936;2022-12-11T06:50:28;0.70;;;0.70;;
53835;SDS011;39737;43.334;21.936;2022-12-11T06:53:15;0.63;;;0.63;;
53835;SDS011;39737;43.334;21.936;2022-12-11T06:56:02;4.22;;;1.15;;
53835;SDS011;39737;43.334;21.936;2022-12-11T06:58:48;0.70;;;0.70;;
53835;SDS011;39737;43.334;21.936;2022-12-11T07:01:34;0.60;;;0.60;;
53835;SDS011;39737;43.334;21.936;2022-12-11T07:04:21;1.58;;;1.55;;
53835;SDS011;39737;43.334;21.936;2022-12-11T07:07:09;1.08;;;1.08;;
53835;SDS011;39737;43.334;21.936;2022-12-11T07:09:56;0.60;;;0.60;;
53835;SDS011;39737;43.334;21.936;2022-12-11T07:12:53;1.50;;;1.45;;
53835;SDS011;39737;43.334;21.936;2022-12-11T07:15:39;1.33;;;1.23;;
53835;SDS011;39737;43.334;21.936;2022-12-11T07:18:26;1.02;;;1.02;;
53835;SDS011;39737;43.334;21.936;2022-12-11T07:21:12;0.80;;;0.80;;
53835;SDS011;39737;43.334;21.936;2022-12-11T07:23:59;1.33;;;1.23;;
53835;SDS011;39737;43.334;21.936;2022-12-11T07:26:45;0.60;;;0.60;;
53835;SDS011;39737;43.334;21.936;2022-12-11T07:29:31;2.05;;;1.30;;
53835;SDS011;39737;43.334;21.936;2022-12-11T07:32:17;0.65;;;0.65;;
53835;SDS011;39737;43.334;21.936;2022-12-11T07:35:22;1.35;;;1.25;;
53835;SDS011;39737;43.334;21.936;2022-12-11T07:38:08;0.77;;;0.77;;
53835;SDS011;39737;43.334;21.936;2022-12-11T07:40:54;0.68;;;0.68;;
53835;SDS011;39737;43.334;21.936;2022-12-11T07:43:59;0.88;;;0.88;;
53835;SDS011;39737;43.334;21.936;2022-12-11T07:46:46;0.60;;;0.60;;
53835;SDS011;39737;43.334;21.936;2022-12-11T07:49:33;0.90;;;0.90;;
53835;SDS011;39737;43.334;21.936;2022-12-11T07:52:19;1.05;;;0.60;;
53835;SDS011;39737;43.334;21.936;2022-12-11T07:55:05;0.85;;;0.85;;
53835;SDS011;39737;43.334;21.936;2022-12-11T07:57:51;0.95;;;0.95;;
53835;SDS011;39737;43.334;21.936;2022-12-11T08:00:38;0.70;;;0.70;;
53835;SDS011;39737;43.334;21.936;2022-12-11T08:03:24;0.75;;;0.75;;
53835;SDS011;39737;43.334;21.936;2022-12-11T08:06:10;0.65;;;0.65;;
53835;SDS011;39737;43.334;21.936;2022-12-11T08:08:58;1.17;;;1.17;;
53835;SDS011;39737;43.334;21.936;2022-12-11T08:11:44;0.80;;;0.80;;
53835;SDS011;39737;43.334;21.936;2022-12-11T08:14:30;0.63;;;0.63;;
53835;SDS011;39737;43.334;21.936;2022-12-11T08:17:16;0.70;;;0.70;;
53835;SDS011;39737;43.334;21.936;2022-12-11T08:20:05;1.02;;;1.02;;
53835;SDS011;39737;43.334;21.936;2022-12-11T08:22:51;0.98;;;0.98;;
53835;SDS011;39737;43.334;21.936;2022-12-11T08:25:43;2.30;;;2.10;;
53835;SDS011;39737;43.334;21.936;2022-12-11T08:28:30;0.60;;;0.60;;
53835;SDS011;39737;43.334;21.936;2022-12-11T08:31:16;0.70;;;0.70;;
53835;SDS011;39737;43.334;21.936;2022-12-11T08:34:02;1.30;;;1.20;;
53835;SDS011;39737;43.334;21.936;2022-12-11T08:36:48;1.40;;;1.30;;
53835;SDS011;39737;43.334;21.936;2022-12-11T08:39:34;1.02;;;1.02;;
53835;SDS011;39737;43.334;21.936;2022-12-11T08:42:21;0.93;;;0.93;;
53835;SDS011;39737;43.334;21.936;2022-12-11T08:45:07;2.28;;;1.45;;
53835;SDS011;39737;43.334;21.936;2022-12-11T08:47:54;0.63;;;0.63;;
53835;SDS011;39737;43.334;21.936;2022-12-11T08:50:40;1.00;;;1.00;;
53835;SDS011;39737;43.334;21.936;2022-12-11T08:53:27;29.63;;;4.22;;
53835;SDS011;39737;43.334;21.936;2022-12-11T08:56:32;2.15;;;2.05;;
53835;SDS011;39737;43.334;21.936;2022-12-11T08:59:18;2.25;;;1.98;;
53835;SDS011;39737;43.334;21.936;2022-12-11T09:02:04;3.22;;;1.70;;
53835;SDS011;39737;43.334;21.936;2022-12-11T09:04:51;2.10;;;1.77;;
53835;SDS011;39737;43.334;21.936;2022-12-11T09:07:37;1.95;;;1.85;;
53835;SDS011;39737;43.334;21.936;2022-12-11T09:10:23;1.05;;;1.05;;
53835;SDS011;39737;43.334;21.936;2022-12-11T09:13:09;1.23;;;1.13;;
53835;SDS011;39737;43.334;21.936;2022-12-11T09:15:56;3.22;;;2.47;;
53835;SDS011;39737;43.334;21.936;2022-12-11T09:18:43;1.70;;;1.60;;
53835;SDS011;39737;43.334;21.936;2022-12-11T09:21:32;3.47;;;2.15;;
53835;SDS011;39737;43.334;21.936;2022-12-11T09:24:18;4.00;;;3.38;;
53835;SDS011;39737;43.334;21.936;2022-12-11T09:27:07;1.42;;;1.33;;
53835;SDS011;39737;43.334;21.936;2022-12-11T09:29:53;1.45;;;1.02;;
53835;SDS011;39737;43.334;21.936;2022-12-11T09:32:39;1.02;;;1.02;;
53835;SDS011;39737;43.334;21.936;2022-12-11T09:35:25;3.92;;;2.13;;
53835;SDS011;39737;43.334;21.936;2022-12-11T09:38:12;7.47;;;3.65;;
53835;SDS011;39737;43.334;21.936;2022-12-11T09:40:59;1.58;;;1.10;;
53835;SDS011;39737;43.334;21.936;2022-12-11T09:43:50;1.45;;;1.35;;
53835;SDS011;39737;43.334;21.936;2022-12-11T09:46:38;0.80;;;0.80;;
53835;SDS011;39737;43.334;21.936;2022-12-11T09:49:36;0.60;;;0.60;;
53835;SDS011;39737;43.334;21.936;2022-12-11T09:52:27;1.60;;;1.50;;
53835;SDS011;39737;43.334;21.936;2022-12-11T09:55:15;1.45;;;1.35;;
53835;SDS011;39737;43.334;21.936;2022-12-11T09:58:10;0.55;;;0.55;;
53835;SDS011;39737;43.334;21.936;2022-12-11T10:01:04;1.65;;;1.55;;
53835;SDS011;39737;43.334;21.936;2022-12-11T10:04:03;2.65;;;2.45;;
53835;SDS011;39737;43.334;21.936;2022-12-11T10:10:04;4.45;;;3.25;;
53835;SDS011;39737;43.334;21.936;2022-12-11T10:12:50;0.98;;;0.88;;
53835;SDS011;39737;43.334;21.936;2022-12-11T10:18:26;1.40;;;1.23;;
53835;SDS011;39737;43.334;21.936;2022-12-11T10:21:16;0.80;;;0.80;;
53835;SDS011;39737;43.334;21.936;2022-12-11T10:24:13;0.88;;;0.88;;
53835;SDS011;39737;43.334;21.936;2022-12-11T10:27:24;0.98;;;0.98;;
53835;SDS011;39737;43.334;21.936;2022-12-11T10:30:17;5.68;;;1.88;;
53835;SDS011;39737;43.334;21.936;2022-12-11T10:33:19;0.70;;;0.70;;
53835;SDS011;39737;43.334;21.936;2022-12-11T10:36:07;0.50;;;0.50;;
53835;SDS011;39737;43.334;21.936;2022-12-11T10:38:54;0.82;;;0.82;;
53835;SDS011;39737;43.334;21.936;2022-12-11T10:41:47;1.33;;;0.98;;
53835;SDS011;39737;43.334;21.936;2022-12-11T10:44:34;2.75;;;2.50;;
53835;SDS011;39737;43.334;21.936;2022-12-11T10:47:21;0.90;;;0.90;;
53835;SDS011;39737;43.334;21.936;2022-12-11T10:50:20;1.92;;;1.80;;
53835;SDS011;39737;43.334;21.936;2022-12-11T10:53:16;0.90;;;0.90;;
53835;SDS011;39737;43.334;21.936;2022-12-11T10:56:05;1.23;;;1.13;;
53835;SDS011;39737;43.334;21.936;2022-12-11T10:58:50;0.80;;;0.80;;
53835;SDS011;39737;43.334;21.936;2022-12-11T11:01:37;0.80;;;0.80;;
53835;SDS011;39737;43.334;21.936;2022-12-11T11:04:30;2.17;;;1.95;;
53835;SDS011;39737;43.334;21.936;2022-12-11T11:07:22;1.15;;;1.15;;
53835;SDS011;39737;43.334;21.936;2022-12-11T11:12:54;0.63;;;0.63;;
53835;SDS011;39737;43.334;21.936;2022-12-11T11:15:45;0.90;;;0.90;;
53835;SDS011;39737;43.334;21.936;2022-12-11T11:18:31;2.33;;;2.08;;
53835;SDS011;39737;43.334;21.936;2022-12-11T11:21:18;1.05;;;1.05;;
53835;SDS011;39737;43.334;21.936;2022-12-11T11:24:05;1.90;;;1.48;;
53835;SDS011;39737;43.334;21.936;2022-12-11T11:26:51;1.23;;;1.23;;
53835;SDS011;39737;43.334;21.936;2022-12-11T11:29:58;2.58;;;1.90;;
53835;SDS011;39737;43.334;21.936;2022-12-11T11:32:45;1.58;;;1.48;;
53835;SDS011;39737;43.334;21.936;2022-12-11T11:35:31;2.28;;;1.50;;
53835;SDS011;39737;43.334;21.936;2022-12-11T11:38:18;1.00;;;1.00;;
53835;SDS011;39737;43.334;21.936;2022-12-11T11:41:26;10.52;;;4.70;;
53835;SDS011;39737;43.334;21.936;2022-12-11T11:44:15;0.93;;;0.93;;
53835;SDS011;39737;43.334;21.936;2022-12-11T11:47:04;1.67;;;1.58;;
53835;SDS011;39737;43.334;21.936;2022-12-11T11:52:42;2.05;;;1.95;;
53835;SDS011;39737;43.334;21.936;2022-12-11T11:55:46;1.80;;;1.70;;
53835;SDS011;39737;43.334;21.936;2022-12-11T12:01:29;1.95;;;1.80;;
53835;SDS011;39737;43.334;21.936;2022-12-11T12:04:15;10.30;;;3.15;;
53835;SDS011;39737;43.334;21.936;2022-12-11T12:28:26;1.77;;;1.67;;
53835;SDS011;39737;43.334;21.936;2022-12-11T12:31:29;3.53;;;3.15;;
53835;SDS011;39737;43.334;21.936;2022-12-11T12:34:25;9.07;;;4.63;;
53835;SDS011;39737;43.334;21.936;2022-12-11T12:40:27;5.30;;;3.65;;
53835;SDS011;39737;43.334;21.936;2022-12-11T12:49:36;16.27;;;12.95;;
53835;SDS011;39737;43.334;21.936;2022-12-11T12:58:00;15.65;;;6.50;;
53835;SDS011;39737;43.334;21.936;2022-12-11T13:00:47;6.00;;;5.00;;
53835;SDS011;39737;43.334;21.936;2022-12-11T13:03:48;12.18;;;5.22;;
53835;SDS011;39737;43.334;21.936;2022-12-11T13:06:42;3.73;;;3.43;;
53835;SDS011;39737;43.334;21.936;2022-12-11T13:09:29;13.20;;;5.47;;
53835;SDS011;39737;43.334;21.936;2022-12-11T13:12:15;8.98;;;5.00;;
53835;SDS011;39737;43.334;21.936;2022-12-11T13:21:34;17.98;;;5.43;;
53835;SDS011;39737;43.334;21.936;2022-12-11T13:27:10;6.43;;;4.55;;
53835;SDS011;39737;43.334;21.936;2022-12-11T13:30:19;10.75;;;6.25;;
53835;SDS011;39737;43.334;21.936;2022-12-11T13:33:13;5.22;;;4.43;;
53835;SDS011;39737;43.334;21.936;2022-12-11T13:39:07;17.20;;;6.93;;
53835;SDS011;39737;43.334;21.936;2022-12-11T13:42:03;2.53;;;2.30;;
53835;SDS011;39737;43.334;21.936;2022-12-11T13:44:50;23.13;;;14.10;;
53835;SDS011;39737;43.334;21.936;2022-12-11T13:47:38;15.07;;;8.20;;
53835;SDS011;39737;43.334;21.936;2022-12-11T13:53:15;5.38;;;4.22;;
53835;SDS011;39737;43.334;21.936;2022-12-11T13:56:02;9.48;;;6.03;;
53835;SDS011;39737;43.334;21.936;2022-12-11T13:58:49;12.25;;;7.47;;
53835;SDS011;39737;43.334;21.936;2022-12-11T14:01:36;10.38;;;5.38;;
53835;SDS011;39737;43.334;21.936;2022-12-11T14:04:41;8.20;;;6.35;;
53835;SDS011;39737;43.334;21.936;2022-12-11T14:07:32;15.07;;;7.75;;
53835;SDS011;39737;43.334;21.936;2022-12-11T14:10:21;4.63;;;3.67;;
53835;SDS011;39737;43.334;21.936;2022-12-11T14:16:06;17.25;;;7.95;;
53835;SDS011;39737;43.334;21.936;2022-12-11T14:18:53;3.38;;;3.08;;
53835;SDS011;39737;43.334;21.936;2022-12-11T14:21:41;9.73;;;6.10;;
53835;SDS011;39737;43.334;21.936;2022-12-11T14:24:28;4.20;;;3.75;;
53835;SDS011;39737;43.334;21.936;2022-12-11T14:27:18;6.70;;;3.30;;
53835;SDS011;39737;43.334;21.936;2022-12-11T14:30:32;9.70;;;5.95;;
53835;SDS011;39737;43.334;21.936;2022-12-11T14:33:21;15.65;;;8.35;;
53835;SDS011;39737;43.334;21.936;2022-12-11T14:36:07;26.92;;;13.45;;
53835;SDS011;39737;43.334;21.936;2022-12-11T14:41:47;17.90;;;9.68;;
53835;SDS011;39737;43.334;21.936;2022-12-11T14:44:59;8.07;;;6.68;;
53835;SDS011;39737;43.334;21.936;2022-12-11T14:47:42;8.65;;;7.78;;
53835;SDS011;39737;43.334;21.936;2022-12-11T14:53:20;7.57;;;6.10;;
53835;SDS011;39737;43.334;21.936;2022-12-11T14:56:07;4.82;;;4.03;;
53835;SDS011;39737;43.334;21.936;2022-12-11T14:58:54;18.63;;;9.70;;
53835;SDS011;39737;43.334;21.936;2022-12-11T15:01:41;5.88;;;3.88;;
53835;SDS011;39737;43.334;21.936;2022-12-11T15:04:32;2.35;;;2.22;;
53835;SDS011;39737;43.334;21.936;2022-12-11T15:07:18;6.18;;;5.43;;
53835;SDS011;39737;43.334;21.936;2022-12-11T15:10:20;13.45;;;7.05;;
53835;SDS011;39737;43.334;21.936;2022-12-11T15:13:07;5.43;;;5.03;;
53835;SDS011;39737;43.334;21.936;2022-12-11T15:15:53;9.48;;;7.38;;
53835;SDS011;39737;43.334;21.936;2022-12-11T15:18:40;9.10;;;5.47;;
53835;SDS011;39737;43.334;21.936;2022-12-11T15:21:30;12.10;;;5.55;;
53835;SDS011;39737;43.334;21.936;2022-12-11T15:24:21;4.13;;;3.85;;
53835;SDS011;39737;43.334;21.936;2022-12-11T15:35:56;5.22;;;4.78;;
53835;SDS011;39737;43.334;21.936;2022-12-11T15:38:42;14.93;;;3.92;;
53835;SDS011;39737;43.334;21.936;2022-12-11T15:41:31;10.98;;;9.40;;
53835;SDS011;39737;43.334;21.936;2022-12-11T15:44:20;12.38;;;5.60;;
53835;SDS011;39737;43.334;21.936;2022-12-11T15:47:15;11.95;;;6.63;;
53835;SDS011;39737;43.334;21.936;2022-12-11T15:50:10;14.27;;;10.85;;
53835;SDS011;39737;43.334;21.936;2022-12-11T15:52:58;7.40;;;5.60;;
53835;SDS011;39737;43.334;21.936;2022-12-11T15:56:02;114.50;;;34.55;;
53835;SDS011;39737;43.334;21.936;2022-12-11T15:58:48;22.95;;;13.73;;
53835;SDS011;39737;43.334;21.936;2022-12-11T16:01:35;16.08;;;8.98;;
53835;SDS011;39737;43.334;21.936;2022-12-11T16:04:21;6.13;;;5.07;;
53835;SDS011;39737;43.334;21.936;2022-12-11T16:07:12;5.95;;;5.38;;
53835;SDS011;39737;43.334;21.936;2022-12-11T16:10:18;8.65;;;4.65;;
53835;SDS011;39737;43.334;21.936;2022-12-11T16:13:04;8.20;;;5.50;;
53835;SDS011;39737;43.334;21.936;2022-12-11T16:15:51;10.68;;;6.88;;
53835;SDS011;39737;43.334;21.936;2022-12-11T16:18:38;3.33;;;3.05;;
53835;SDS011;39737;43.334;21.936;2022-12-11T16:21:25;4.13;;;3.33;;
53835;SDS011;39737;43.334;21.936;2022-12-11T16:24:12;5.78;;;4.50;;
53835;SDS011;39737;43.334;21.936;2022-12-11T16:26:58;17.42;;;11.93;;
53835;SDS011;39737;43.334;21.936;2022-12-11T16:29:44;4.78;;;3.80;;
53835;SDS011;39737;43.334;21.936;2022-12-11T16:32:31;11.02;;;8.77;;
53835;SDS011;39737;43.334;21.936;2022-12-11T16:35:23;13.20;;;9.00;;
53835;SDS011;39737;43.334;21.936;2022-12-11T16:38:10;11.98;;;7.47;;
53835;SDS011;39737;43.334;21.936;2022-12-11T16:41:00;9.68;;;6.63;;
53835;SDS011;39737;43.334;21.936;2022-12-11T16:43:48;11.20;;;7.80;;
53835;SDS011;39737;43.334;21.936;2022-12-11T16:46:34;30.58;;;15.55;;
53835;SDS011;39737;43.334;21.936;2022-12-11T16:49:21;10.13;;;6.65;;
53835;SDS011;39737;43.334;21.936;2022-12-11T16:52:08;6.75;;;5.32;;
53835;SDS011;39737;43.334;21.936;2022-12-11T16:54:56;22.02;;;13.98;;
53835;SDS011;39737;43.334;21.936;2022-12-11T16:57:44;11.10;;;8.45;;
53835;SDS011;39737;43.334;21.936;2022-12-11T17:00:32;17.33;;;7.43;;
53835;SDS011;39737;43.334;21.936;2022-12-11T17:03:18;15.82;;;8.20;;
53835;SDS011;39737;43.334;21.936;2022-12-11T17:06:09;26.25;;;14.32;;
53835;SDS011;39737;43.334;21.936;2022-12-11T17:08:56;5.55;;;3.70;;
53835;SDS011;39737;43.334;21.936;2022-12-11T17:11:42;14.77;;;9.35;;
53835;SDS011;39737;43.334;21.936;2022-12-11T17:14:32;12.93;;;8.48;;
53835;SDS011;39737;43.334;21.936;2022-12-11T17:17:22;12.45;;;4.35;;
53835;SDS011;39737;43.334;21.936;2022-12-11T17:20:09;8.40;;;6.32;;
53835;SDS011;39737;43.334;21.936;2022-12-11T17:22:56;16.02;;;8.05;;
53835;SDS011;39737;43.334;21.936;2022-12-11T17:25:44;10.25;;;7.78;;
53835;SDS011;39737;43.334;21.936;2022-12-11T17:28:30;19.13;;;10.20;;
53835;SDS011;39737;43.334;21.936;2022-12-11T17:31:17;5.70;;;4.82;;
53835;SDS011;39737;43.334;21.936;2022-12-11T17:34:04;21.02;;;9.30;;
53835;SDS011;39737;43.334;21.936;2022-12-11T17:36:50;17.65;;;6.15;;
53835;SDS011;39737;43.334;21.936;2022-12-11T17:39:36;9.85;;;6.70;;
53835;SDS011;39737;43.334;21.936;2022-12-11T17:42:22;8.63;;;5.05;;
53835;SDS011;39737;43.334;21.936;2022-12-11T17:45:09;15.38;;;11.50;;
53835;SDS011;39737;43.334;21.936;2022-12-11T17:47:55;17.15;;;8.38;;
53835;SDS011;39737;43.334;21.936;2022-12-11T17:50:45;8.65;;;7.65;;
53835;SDS011;39737;43.334;21.936;2022-12-11T17:53:31;12.40;;;5.57;;
53835;SDS011;39737;43.334;21.936;2022-12-11T17:56:17;16.48;;;10.38;;
53835;SDS011;39737;43.334;21.936;2022-12-11T17:59:05;7.70;;;6.90;;
53835;SDS011;39737;43.334;21.936;2022-12-11T18:01:52;9.07;;;6.80;;
53835;SDS011;39737;43.334;21.936;2022-12-11T18:04:40;10.75;;;5.90;;
53835;SDS011;39737;43.334;21.936;2022-12-11T18:07:27;17.10;;;11.85;;
53835;SDS011;39737;43.334;21.936;2022-12-11T18:10:13;67.30;;;19.20;;
53835;SDS011;39737;43.334;21.936;2022-12-11T18:13:00;12.18;;;7.38;;
53835;SDS011;39737;43.334;21.936;2022-12-11T18:15:46;15.18;;;8.55;;
53835;SDS011;39737;43.334;21.936;2022-12-11T18:18:33;9.88;;;8.13;;
53835;SDS011;39737;43.334;21.936;2022-12-11T18:21:38;9.32;;;5.68;;